Nearby METAR Reports

(scroll for additional cities)

KPSP - Palm Springs, California, USA
Distance from station: WNW 7mi, 11km
Updated: Mon, 15-Oct-2018 12:53am PDT
Clear
Clear
 Wind from NW
Wind: NW 13 mph , 20 km/h
Temperature: 75°F , 24°C
Dew Point: 19°F , -7°C
Humidity: 12%
Barometer: 30.03 inHg , 1016.9 hPa
Clouds: Clear
Visibility: 10 miles , 16 km
2018/10/15 07:53 KPSP 150753Z AUTO 31011KT 10SM CLR 24/M07 A3003 RMK AO2 SLP168 T02441072 403000161
KTRM - Thermal/Palm Spg, California, USA
Distance from station: SE 16mi, 26km
Updated: Mon, 15-Oct-2018 12:52am PDT
Few Clouds
Few Clouds
 Wind from ENE
Wind: ENE 6 mph , 9 km/h
Temperature: 73°F , 23°C
Dew Point: 30°F , -1°C
Humidity: 20%
Barometer: 29.98 inHg , 1015.2 hPa
Clouds: Few Clouds
Visibility: 10 miles , 16 km
Cloud details: Few Clouds 11000 ft
2018/10/15 07:52 KTRM 150752Z AUTO 07005KT 10SM FEW110 23/M01 A2998 RMK AO2 SLP155 T02281006 403170194
 
KNXP - Twentynine Palms, California, USA
Distance from station: NNE 37mi, 60km
Updated: Mon, 15-Oct-2018 12:56am PDT
Clear
Clear
 Wind from WNW
Wind: WNW 8 mph , 13 km/h
Temperature: 57°F , 14°C
Dew Point: 36°F , 2°C
Humidity: 44%
Barometer: 30.19 inHg , 1022.4 hPa
Clouds: Clear
Visibility: 10 miles , 16 km
2018/10/15 07:56 KNXP 150756Z AUTO 29007KT 10SM CLR 14/02 A3019 RMK AO2 SLP198 T01390022 402440122
KL35 - Big Bear City, California, USA
Distance from station: NW 43mi, 69km
Updated: Mon, 15-Oct-2018 12:55am PDT
Clear
Clear
 Wind from calm
Wind: Calm
Temperature: 32°F , 0°C
Dew Point: 19°F , -7°C
Humidity: 60%
Barometer: 30.22 inHg , 1023.4 hPa
Clouds: Clear
Visibility: 10 miles , 16 km
2018/10/15 07:55 KL35 150755Z AUTO 00000KT 10SM CLR 00/M07 A3022 RMK AO2
 
KF70 - Murrieta/Temecula, California, USA
Distance from station: WSW 45mi, 73km
Updated: Mon, 15-Oct-2018 12:55am PDT
Clear
Clear
 Wind from calm
Wind: Calm
Temperature: 59°F , 15°C
Dew Point: 57°F , 14°C
Humidity: 94%
Barometer: 30.03 inHg , 1016.9 hPa
Clouds: Clear
Visibility: 7 miles , 11 km
2018/10/15 07:55 KF70 150755Z AUTO 00000KT 7SM CLR 15/14 A3003 RMK AO1
KRIV - Riverside/March, California, USA
Distance from station: W 51mi, 82km
Updated: Mon, 15-Oct-2018 12:58am PDT
Mostly Cloudy
Mostly Cloudy
 Wind from NW
Wind: NW 5 mph , 7 km/h
Temperature: 57°F , 14°C
Dew Point: 57°F , 14°C
Humidity: 100%
Barometer: 30.03 inHg , 1016.9 hPa
Clouds: Mostly Cloudy
Visibility: 10 miles , 16 km
Cloud details: Mostly Cloudy 10000 ft
2018/10/15 07:58 KRIV 150758Z AUTO 31004KT 10SM BKN100 14/14 A3003 RMK AO2 SLP162 T01410141 402230136 PNO $
 
KSBD - San Bernardino, California, USA
Distance from station: WNW 54mi, 86km
Updated: Mon, 15-Oct-2018 1:00am PDT
Mostly Cloudy
Mostly Cloudy
 Wind from E
Wind: E 3 mph , 6 km/h
Temperature: 61°F , 16°C
Dew Point: 54°F , 12°C
Humidity: 77%
Barometer: 30.03 inHg , 1016.9 hPa
Clouds: Mostly Cloudy
Visibility: 10 miles , 16 km
Cloud details: Mostly Cloudy 12000 ft
2018/10/15 08:00 KSBD 150800Z AUTO 08003KT 10SM BKN120 16/12 A3003 RMK AO2 T01550121
KRNM - Ramona, California, USA
Distance from station: SSW 60mi, 96km
Updated: Mon, 15-Oct-2018 1:09am PDT
Fog, Overcast
Fog, Overcast
 Wind from calm
Wind: Calm
Temperature: 54°F , 12°C
Dew Point: 52°F , 11°C
Humidity: 94%
Barometer: 30.01 inHg , 1016.3 hPa
Summary: Fog
Clouds: Overcast
Visibility: 1/4 mile , 2 km
Cloud details: Overcast 300 ft
2018/10/15 08:09 KRNM 150809Z AUTO 00000KT 1/4SM FG VV003 12/11 A3001 RMK AO2 T01170111
 
KRAL - Riverside, California, USA
Distance from station: W 62mi, 100km
Updated: Mon, 15-Oct-2018 12:53am PDT
Overcast
Overcast
 Wind from E
Wind: E 3 mph , 6 km/h
Temperature: 61°F , 16°C
Dew Point: 57°F , 14°C
Humidity: 88%
Barometer: 30.02 inHg , 1016.6 hPa
Clouds: Overcast
Visibility: 9 miles , 14 km
Cloud details: Overcast 12000 ft
2018/10/15 07:53 KRAL 150753Z AUTO 08003KT 9SM OVC120 16/14 A3002 RMK AO2 SLP153 T01560139 402330156
KOKB - Oceanside, California, USA
Distance from station: SW 68mi, 109km
Updated: Mon, 15-Oct-2018 12:52am PDT
Partly Cloudy
Partly Cloudy
 Wind from calm
Wind: Calm
Temperature: 57°F , 14°C
Dew Point: 55°F , 13°C
Humidity: 94%
Barometer: 29.98 inHg , 1015.2 hPa
Clouds: Partly Cloudy
Visibility: 8 miles , 13 km
Cloud details: Partly Cloudy 9500 ft
2018/10/15 07:52 KOKB 150752Z AUTO 00000KT 8SM SCT095 14/13 A2998 RMK AO2 SLP153 T01440133 402280133
 
KONT - Ontario, California, USA
Distance from station: WNW 71mi, 114km
Updated: Mon, 15-Oct-2018 12:53am PDT
Nearby blowing, Widespread dust, Mostly cloudy
Nearby blowing, Widespread dust, Mostly cloudy
 Wind from ENE
Wind: ENE 14 mph , 22 km/h, Gust: 24 mph , 39 km/h
Temperature: 70°F , 21°C
Dew Point: 25°F , -4°C
Humidity: 18%
Barometer: 30.00 inHg , 1015.9 hPa
Summary: Nearby blowing, Widespread dust
Clouds: Mostly Cloudy
Visibility: 10 miles , 16 km
Cloud details: Mostly Cloudy 11000 ft
2018/10/15 07:53 KONT 150753Z 06012G21KT 10SM VCBLDU BKN110 21/M04 A3000 RMK AO2 SLP148 T02111039 402280150 PNO $
KNJK - El Centro Naf, California, USA
Distance from station: SSE 78mi, 126km
Updated: Mon, 15-Oct-2018 12:56am PDT
Overcast
Overcast
 Wind from N
Wind: N 8 mph , 13 km/h
Temperature: 70°F , 21°C
Dew Point: 30°F , -1°C
Humidity: 23%
Barometer: 29.99 inHg , 1015.6 hPa
Clouds: Overcast
Visibility: 10 miles , 16 km
Cloud details: Overcast 11000 ft
2018/10/15 07:56 KNJK 150756Z AUTO 35007KT 310V010 10SM OVC110 21/M01 A2999 RMK AO2 SLP170 T02111006 403000144 $
 
KSEE - San Diego/Santee, California, USA
Distance from station: SSW 74mi, 120km
Updated: Mon, 15-Oct-2018 12:55am PDT
Clear
Clear
 Wind from calm
Wind: Calm
Temperature: 59°F , 15°C
Dew Point: 57°F , 14°C
Humidity: 94%
Barometer: 29.99 inHg , 1015.6 hPa
Clouds: Clear
Visibility: 10 miles , 16 km
2018/10/15 07:55 KSEE 150755Z AUTO 00000KT 10SM CLR 15/14 A2999 RMK AO2
KCNO - Chino, California, USA
Distance from station: W 72mi, 116km
Updated: Mon, 15-Oct-2018 12:53am PDT
Mist, Mostly cloudy
Mist, Mostly cloudy
 Wind from E
Wind: E 3 mph , 6 km/h
Temperature: 61°F , 16°C
Dew Point: 57°F , 14°C
Humidity: 88%
Barometer: 30.02 inHg , 1016.6 hPa
Summary: Mist
Clouds: Mostly Cloudy
Visibility: 5 miles , 8 km
Cloud details: Mostly Cloudy 12000 ft
2018/10/15 07:53 KCNO 150753Z AUTO 09003KT 5SM BR BKN120 16/14 A3002 RMK AO2 SLP162 T01610139 402500150 $